createdAt,value
2017-10-26T00:01:28.283Z,8.82
2017-10-26T00:03:58.100Z,9.30
2017-10-26T00:06:27.845Z,9.80
2017-10-26T00:08:57.616Z,9.88
2017-10-26T00:11:27.359Z,9.55
2017-10-26T00:13:57.097Z,8.93
2017-10-26T00:16:26.835Z,8.90
2017-10-26T00:18:56.657Z,12.52
2017-10-26T00:21:26.446Z,14.68
2017-10-26T00:23:56.173Z,8.05
2017-10-26T00:26:25.933Z,8.45
2017-10-26T00:28:55.697Z,6.60
2017-10-26T00:31:25.455Z,9.55
2017-10-26T00:33:55.210Z,10.77
2017-10-26T00:36:24.972Z,10.55
2017-10-26T00:38:54.756Z,9.13
2017-10-26T00:41:24.505Z,8.73
2017-10-26T00:43:54.262Z,8.23
2017-10-26T00:46:24.043Z,8.45
2017-10-26T00:48:53.849Z,10.02
2017-10-26T00:51:23.611Z,8.57
2017-10-26T00:53:53.355Z,8.32
2017-10-26T00:56:23.113Z,10.68
2017-10-26T00:58:52.856Z,9.18
2017-10-26T01:01:22.273Z,9.57
2017-10-26T01:03:52.730Z,10.70
2017-10-26T01:06:22.530Z,12.02
2017-10-26T01:08:52.280Z,12.48
2017-10-26T01:11:22.083Z,10.60
2017-10-26T01:13:51.846Z,13.50
2017-10-26T01:16:21.008Z,18.62
2017-10-26T01:18:50.634Z,21.10
2017-10-26T01:21:19.813Z,11.07
2017-10-26T01:23:49.262Z,11.38
2017-10-26T01:26:19.046Z,15.98
2017-10-26T01:28:48.882Z,12.35
2017-10-26T01:31:18.917Z,13.85
2017-10-26T01:33:48.507Z,13.85
2017-10-26T01:36:17.914Z,16.85
2017-10-26T01:38:47.786Z,18.92
2017-10-26T01:41:17.189Z,15.75
2017-10-26T01:43:46.610Z,21.45
2017-10-26T01:46:16.383Z,17.73
2017-10-26T01:48:46.265Z,16.10
2017-10-26T01:51:15.767Z,15.65
2017-10-26T01:53:45.202Z,19.20
2017-10-26T01:56:14.784Z,18.77
2017-10-26T01:58:44.577Z,19.85
2017-10-26T02:01:14.070Z,20.95
2017-10-26T02:03:43.513Z,23.67
2017-10-26T02:06:12.777Z,22.52
2017-10-26T02:08:42.099Z,23.77
2017-10-26T02:11:11.869Z,24.35
2017-10-26T02:13:41.699Z,25.30
2017-10-26T02:16:11.172Z,21.52
2017-10-26T02:18:40.810Z,29.95
2017-10-26T02:21:10.315Z,27.92
2017-10-26T02:23:39.915Z,27.70
2017-10-26T02:26:09.695Z,22.95
2017-10-26T02:28:50.576Z,22.13
2017-10-26T02:31:31.331Z,22.50
2017-10-26T02:34:00.931Z,22.00
2017-10-26T02:36:30.547Z,21.73
2017-10-26T02:39:00.308Z,24.70
2017-10-26T02:41:30.105Z,20.85
2017-10-26T02:43:59.905Z,24.95
2017-10-26T02:46:29.664Z,22.73
2017-10-26T02:48:59.270Z,19.77
2017-10-26T02:51:29.069Z,21.60
2017-10-26T02:53:58.833Z,20.27
2017-10-26T02:56:28.593Z,19.95
2017-10-26T02:58:58.368Z,25.40
2017-10-26T03:01:27.673Z,21.20
2017-10-26T03:03:57.287Z,15.77
2017-10-26T03:06:26.731Z,20.65
2017-10-26T03:08:57.230Z,19.83
2017-10-26T03:11:27.006Z,14.93
2017-10-26T03:13:56.773Z,18.00
2017-10-26T03:16:26.566Z,15.02
2017-10-26T03:18:56.361Z,20.48
2017-10-26T03:21:26.164Z,20.95
2017-10-26T03:23:55.747Z,18.25
2017-10-26T03:26:25.534Z,17.58
2017-10-26T03:28:55.340Z,20.40
2017-10-26T03:31:25.118Z,21.42
2017-10-26T03:33:54.918Z,18.65
2017-10-26T03:36:24.693Z,18.10
2017-10-26T03:38:54.470Z,19.73
2017-10-26T03:41:24.261Z,19.83
2017-10-26T03:43:54.038Z,18.40
2017-10-26T03:46:23.805Z,22.60
2017-10-26T03:48:53.564Z,17.27
2017-10-26T03:51:23.001Z,19.20
2017-10-26T03:53:52.797Z,16.27
2017-10-26T03:56:22.224Z,17.45
2017-10-26T03:58:51.989Z,22.00
2017-10-26T04:01:21.761Z,18.23
2017-10-26T04:03:51.530Z,22.08
2017-10-26T04:06:21.343Z,19.25
2017-10-26T04:08:51.150Z,16.83
2017-10-26T04:11:20.975Z,20.25
2017-10-26T04:13:50.745Z,15.90
2017-10-26T04:16:20.529Z,17.27
2017-10-26T04:18:50.570Z,17.65
2017-10-26T04:21:20.141Z,23.75
2017-10-26T04:23:49.735Z,22.65
2017-10-26T04:26:19.333Z,19.67
2017-10-26T04:28:49.101Z,18.50
2017-10-26T04:31:18.344Z,16.55
2017-10-26T04:33:47.837Z,18.00
2017-10-26T04:36:17.607Z,18.55
2017-10-26T04:38:47.610Z,18.05
2017-10-26T04:41:17.391Z,20.52
2017-10-26T04:43:47.227Z,18.10
2017-10-26T04:46:16.994Z,18.40
2017-10-26T04:48:46.750Z,29.83
2017-10-26T04:51:16.508Z,16.98
2017-10-26T04:53:46.285Z,22.33
2017-10-26T04:56:16.051Z,18.98
2017-10-26T04:58:45.849Z,23.92
2017-10-26T05:01:15.618Z,21.90
2017-10-26T05:03:45.406Z,21.60
2017-10-26T05:06:15.197Z,24.35
2017-10-26T05:08:44.975Z,19.48
2017-10-26T05:11:14.742Z,20.80
2017-10-26T05:13:44.528Z,20.62
2017-10-26T05:16:14.338Z,22.08
2017-10-26T05:18:44.107Z,18.10
2017-10-26T05:21:14.124Z,19.33
2017-10-26T05:23:43.883Z,21.98
2017-10-26T05:26:13.656Z,18.55
2017-10-26T05:28:43.242Z,18.83
2017-10-26T05:31:13.549Z,18.42
2017-10-26T05:33:43.130Z,20.12
2017-10-26T05:36:13.151Z,20.15
2017-10-26T05:38:42.567Z,17.75
2017-10-26T05:41:12.503Z,18.85
2017-10-26T05:43:42.439Z,18.02
2017-10-26T05:46:12.025Z,27.15
2017-10-26T05:48:41.845Z,16.05
2017-10-26T05:51:12.531Z,19.62
2017-10-26T05:53:43.164Z,18.77
2017-10-26T05:56:12.926Z,19.67
2017-10-26T05:58:42.627Z,16.02
2017-10-26T06:01:12.449Z,15.85
2017-10-26T06:03:42.214Z,14.32
2017-10-26T06:06:12.052Z,16.83
2017-10-26T06:08:41.819Z,17.55
2017-10-26T06:11:11.439Z,17.17
2017-10-26T06:13:41.208Z,13.30
2017-10-26T06:16:11.003Z,14.63
2017-10-26T06:18:40.858Z,17.02
2017-10-26T06:21:10.810Z,16.58
2017-10-26T06:23:41.020Z,11.48
2017-10-26T06:26:11.345Z,13.18
2017-10-26T06:28:41.189Z,18.42
2017-10-26T06:31:10.666Z,16.65
2017-10-26T06:33:40.493Z,12.05
2017-10-26T06:36:10.263Z,12.60
2017-10-26T06:38:40.054Z,10.85
2017-10-26T06:41:09.814Z,12.30
2017-10-26T06:43:39.586Z,13.07
2017-10-26T06:46:09.382Z,11.93
2017-10-26T06:48:39.008Z,13.20
2017-10-26T06:51:08.580Z,14.98
2017-10-26T06:53:38.167Z,17.58
2017-10-26T06:56:08.340Z,14.85
2017-10-26T06:58:38.453Z,13.88
2017-10-26T07:01:08.523Z,14.27
2017-10-26T07:03:38.371Z,12.70
2017-10-26T07:06:09.112Z,13.48
2017-10-26T07:08:38.944Z,14.30
2017-10-26T07:11:09.565Z,25.37
2017-10-26T07:13:39.487Z,24.90
2017-10-26T07:16:09.359Z,23.92
2017-10-26T07:18:39.179Z,20.48
2017-10-26T07:21:09.033Z,21.58
2017-10-26T07:23:38.842Z,23.52
2017-10-26T07:26:08.644Z,23.20
2017-10-26T07:28:38.492Z,17.77
2017-10-26T07:31:08.383Z,21.85
2017-10-26T07:33:38.343Z,17.52
2017-10-26T07:36:07.963Z,24.20
2017-10-26T07:38:37.752Z,14.65
2017-10-26T07:41:07.589Z,18.90
2017-10-26T07:43:37.382Z,22.58
2017-10-26T07:46:07.379Z,15.95
2017-10-26T07:48:37.508Z,19.37
2017-10-26T07:51:07.029Z,18.02
2017-10-26T07:53:36.930Z,21.37
2017-10-26T07:56:06.762Z,21.58
2017-10-26T07:58:36.624Z,18.58
2017-10-26T08:01:06.765Z,20.00
2017-10-26T08:03:36.611Z,21.00
2017-10-26T08:06:06.464Z,19.77
2017-10-26T08:08:36.317Z,14.68
2017-10-26T08:11:06.664Z,13.80
2017-10-26T08:13:36.182Z,8.27
2017-10-26T08:16:06.837Z,8.48
2017-10-26T08:18:36.981Z,12.52
2017-10-26T08:21:06.461Z,9.32
2017-10-26T08:23:36.252Z,8.35
2017-10-26T08:26:06.694Z,9.15
2017-10-26T08:28:36.506Z,10.35
2017-10-26T08:31:06.301Z,9.18
2017-10-26T08:33:36.976Z,14.07
2017-10-26T08:36:07.371Z,11.80
2017-10-26T08:38:37.683Z,12.82
2017-10-26T08:41:07.501Z,16.60
2017-10-26T08:43:37.611Z,20.73
2017-10-26T08:46:08.967Z,15.40
2017-10-26T08:48:38.738Z,14.30
2017-10-26T08:51:08.155Z,18.27
2017-10-26T08:53:38.114Z,13.52
2017-10-26T08:56:07.629Z,12.68
2017-10-26T08:58:37.116Z,11.70
2017-10-26T09:01:06.931Z,13.70
2017-10-26T09:03:36.807Z,11.68
2017-10-26T09:06:06.011Z,11.77
2017-10-26T09:08:35.178Z,13.37
2017-10-26T09:11:04.401Z,10.67
2017-10-26T09:13:33.569Z,12.20
2017-10-26T09:16:04.175Z,15.13
2017-10-26T09:18:33.401Z,12.40
2017-10-26T09:21:02.343Z,14.73
2017-10-26T09:23:31.477Z,14.83
2017-10-26T09:26:01.482Z,13.43
2017-10-26T09:28:30.624Z,10.73
2017-10-26T09:30:59.830Z,13.20
2017-10-26T09:33:34.402Z,12.43
2017-10-26T09:36:03.396Z,10.80
2017-10-26T09:38:32.275Z,13.80
2017-10-26T09:41:01.452Z,12.33
2017-10-26T09:43:30.608Z,11.73
2017-10-26T09:45:59.760Z,11.50
2017-10-26T09:48:28.910Z,11.57
2017-10-26T09:50:58.783Z,11.67
2017-10-26T09:53:27.950Z,12.30
2017-10-26T09:55:57.111Z,10.50
2017-10-26T09:58:26.598Z,9.47
2017-10-26T10:00:55.746Z,12.37
2017-10-26T10:03:24.869Z,12.00
2017-10-26T10:05:53.998Z,14.00
2017-10-26T10:08:23.460Z,13.10
2017-10-26T10:10:52.592Z,10.57
2017-10-26T10:13:21.757Z,8.13
2017-10-26T10:15:51.317Z,11.63
2017-10-26T10:18:20.478Z,11.40
2017-10-26T10:20:49.532Z,11.43
2017-10-26T10:23:18.731Z,11.97
2017-10-26T10:25:48.156Z,13.07
2017-10-26T10:28:17.123Z,8.63
2017-10-26T10:30:46.295Z,11.20
2017-10-26T10:33:15.251Z,9.33
2017-10-26T10:35:44.550Z,12.00
2017-10-26T10:38:13.909Z,11.20
2017-10-26T10:40:43.102Z,11.80
2017-10-26T10:43:12.887Z,11.33
2017-10-26T10:45:42.031Z,12.20
2017-10-26T10:48:11.603Z,11.60
2017-10-26T10:50:41.106Z,10.30
2017-10-26T10:53:10.602Z,17.60
2017-10-26T10:55:40.134Z,10.57
2017-10-26T10:58:09.611Z,13.70
2017-10-26T11:00:38.788Z,12.70
2017-10-26T11:03:08.040Z,14.33
2017-10-26T11:05:37.210Z,11.90
2017-10-26T11:08:06.348Z,15.03
2017-10-26T11:10:35.772Z,15.57
2017-10-26T11:13:05.254Z,14.40
2017-10-26T11:15:34.769Z,17.43
2017-10-26T11:18:03.996Z,16.13
2017-10-26T11:20:33.546Z,13.67
2017-10-26T11:23:02.713Z,21.67
2017-10-26T11:25:31.850Z,18.53
2017-10-26T11:28:00.989Z,11.43
2017-10-26T11:30:30.163Z,13.60
2017-10-26T11:32:59.678Z,15.43
2017-10-26T11:35:29.189Z,20.37
2017-10-26T11:37:58.327Z,17.00
2017-10-26T11:40:27.467Z,12.20
2017-10-26T11:42:56.969Z,14.33
2017-10-26T11:45:26.498Z,14.60
2017-10-26T11:47:56.014Z,13.27
2017-10-26T11:50:25.498Z,11.33
2017-10-26T11:52:54.634Z,11.50
2017-10-26T11:55:23.576Z,13.20
2017-10-26T11:57:52.544Z,10.97
2017-10-26T12:00:21.528Z,11.20
2017-10-26T12:02:50.336Z,14.00
2017-10-26T12:05:19.504Z,12.70
2017-10-26T12:07:48.754Z,10.60
2017-10-26T12:10:17.908Z,10.63
2017-10-26T12:12:47.022Z,10.83
2017-10-26T12:15:16.506Z,10.23
2017-10-26T12:17:46.026Z,9.70
2017-10-26T12:20:15.191Z,13.83
2017-10-26T12:22:44.640Z,14.50
2017-10-26T12:25:14.220Z,12.70
2017-10-26T12:27:43.685Z,10.83
2017-10-26T12:30:12.669Z,10.57
2017-10-26T12:32:41.783Z,11.87
2017-10-26T12:35:11.289Z,19.33
2017-10-26T12:37:40.437Z,11.13
2017-10-26T12:40:09.914Z,10.00
2017-10-26T12:42:39.398Z,8.60
2017-10-26T12:45:08.625Z,13.53
2017-10-26T12:47:37.837Z,12.20
2017-10-26T12:50:07.049Z,9.13
2017-10-26T12:52:36.584Z,8.20
2017-10-26T12:55:06.315Z,8.13
2017-10-26T12:57:35.834Z,7.60
2017-10-26T13:00:05.302Z,7.37
2017-10-26T13:02:34.263Z,6.40
2017-10-26T13:05:03.441Z,7.80
2017-10-26T13:07:32.798Z,6.40
2017-10-26T13:10:01.993Z,6.67
2017-10-26T13:12:31.155Z,6.40
2017-10-26T13:15:02.446Z,8.83
2017-10-26T13:17:31.629Z,6.13
2017-10-26T13:20:01.636Z,5.33
2017-10-26T13:22:30.810Z,5.33
2017-10-26T13:24:59.982Z,4.73
2017-10-26T13:27:29.443Z,6.17
2017-10-26T13:29:58.910Z,6.10
2017-10-26T13:32:28.605Z,5.80
2017-10-26T13:34:58.459Z,6.53
2017-10-26T13:37:27.922Z,5.83
2017-10-26T13:39:57.419Z,9.83
2017-10-26T13:42:26.897Z,4.87
2017-10-26T13:44:56.431Z,4.50
2017-10-26T13:47:25.888Z,6.30
2017-10-26T13:49:55.362Z,6.00
2017-10-26T13:52:24.818Z,6.60
2017-10-26T13:54:54.274Z,8.60
2017-10-26T13:57:23.778Z,7.93
2017-10-26T13:59:53.296Z,6.63
2017-10-26T14:02:22.395Z,8.10
2017-10-26T14:04:51.881Z,6.97
2017-10-26T14:07:21.379Z,6.80
2017-10-26T14:09:50.829Z,8.00
2017-10-26T14:12:20.299Z,5.47
2017-10-26T14:14:49.756Z,6.83
2017-10-26T14:17:19.262Z,8.10
2017-10-26T14:19:48.762Z,8.47
2017-10-26T14:22:18.201Z,6.10
2017-10-26T14:24:47.687Z,6.30
2017-10-26T14:27:17.158Z,13.77
2017-10-26T14:29:46.640Z,6.80
2017-10-26T14:32:16.352Z,7.23
2017-10-26T14:34:45.817Z,5.43
2017-10-26T14:37:15.105Z,5.70
2017-10-26T14:39:44.576Z,6.03
2017-10-26T14:42:14.325Z,5.03
2017-10-26T14:44:43.791Z,5.57
2017-10-26T14:47:13.268Z,7.07
2017-10-26T14:49:42.807Z,6.30
2017-10-26T14:52:12.242Z,7.13
2017-10-26T14:54:41.710Z,7.77
2017-10-26T14:57:11.216Z,7.30
2017-10-26T14:59:40.775Z,6.30
2017-10-26T15:02:11.122Z,5.20
2017-10-26T15:04:40.585Z,7.87
2017-10-26T15:07:10.047Z,6.23
2017-10-26T15:09:39.535Z,6.97
2017-10-26T15:12:09.034Z,6.67
2017-10-26T15:14:38.503Z,8.00
2017-10-26T15:17:08.008Z,8.43
2017-10-26T15:19:37.606Z,9.63
2017-10-26T15:22:07.083Z,10.23
2017-10-26T15:24:36.568Z,9.90
2017-10-26T15:27:05.937Z,7.10
2017-10-26T15:29:35.420Z,7.30
2017-10-26T15:32:04.903Z,8.60
2017-10-26T15:34:34.393Z,8.10
2017-10-26T15:37:03.894Z,10.70
2017-10-26T15:39:33.374Z,11.60
2017-10-26T15:42:02.870Z,13.43
2017-10-26T15:44:32.394Z,11.17
2017-10-26T15:47:01.874Z,8.30
2017-10-26T15:49:31.325Z,7.50
2017-10-26T15:52:01.144Z,13.63
2017-10-26T15:54:30.637Z,10.87
2017-10-26T15:57:00.141Z,10.60
2017-10-26T15:59:29.624Z,12.40
2017-10-26T16:01:59.106Z,12.03
2017-10-26T16:04:28.592Z,11.10
2017-10-26T16:06:57.942Z,12.00
2017-10-26T16:09:27.729Z,12.50
2017-10-26T16:11:57.182Z,10.73
2017-10-26T16:14:26.653Z,14.67
2017-10-26T16:16:56.136Z,9.93
2017-10-26T16:19:25.618Z,9.67
2017-10-26T16:21:55.079Z,15.50
2017-10-26T16:24:24.546Z,12.73
2017-10-26T16:26:54.032Z,12.63
2017-10-26T16:29:23.491Z,12.30
2017-10-26T16:31:53.645Z,17.23
2017-10-26T16:34:23.486Z,10.27
2017-10-26T16:36:52.942Z,15.43
2017-10-26T16:39:24.065Z,12.03
2017-10-26T16:41:53.842Z,14.02
2017-10-26T16:44:23.603Z,16.15
2017-10-26T16:46:52.870Z,14.20
2017-10-26T16:49:22.329Z,12.83
2017-10-26T16:51:52.281Z,15.40
2017-10-26T16:54:21.748Z,18.43
2017-10-26T16:56:51.220Z,19.07
2017-10-26T16:59:20.698Z,21.07
2017-10-26T17:01:50.508Z,18.83
2017-10-26T17:04:19.997Z,17.70
2017-10-26T17:06:50.401Z,16.48
2017-10-26T17:09:20.043Z,16.43
2017-10-26T17:11:49.501Z,16.63
2017-10-26T17:14:19.251Z,23.42
2017-10-26T17:16:49.304Z,16.95
2017-10-26T17:19:19.000Z,18.47
2017-10-26T17:21:48.500Z,19.07
2017-10-26T17:24:17.952Z,22.93
2017-10-26T17:26:48.244Z,20.70
2017-10-26T17:29:18.106Z,17.02
2017-10-26T17:31:47.867Z,18.08
2017-10-26T17:34:17.623Z,23.35
2017-10-26T17:36:47.393Z,21.80
2017-10-26T17:39:17.170Z,22.37
2017-10-26T17:41:46.928Z,20.37
2017-10-26T17:44:16.793Z,18.80
2017-10-26T17:46:46.615Z,22.70
2017-10-26T17:49:16.390Z,19.73
2017-10-26T17:51:46.195Z,23.87
2017-10-26T17:54:15.944Z,21.33
2017-10-26T17:56:45.726Z,25.48
2017-10-26T17:59:15.498Z,23.92
2017-10-26T18:01:45.527Z,25.02
2017-10-26T18:04:15.276Z,22.67
2017-10-26T18:06:45.042Z,22.77
2017-10-26T18:09:14.829Z,21.85
2017-10-26T18:11:45.131Z,23.50
2017-10-26T18:14:23.584Z,31.20
2017-10-26T18:16:55.115Z,32.20
2017-10-26T18:19:24.876Z,27.00
2017-10-26T18:21:54.637Z,25.65
2017-10-26T18:24:24.401Z,18.58
2017-10-26T18:26:54.163Z,22.45
2017-10-26T18:29:23.927Z,27.52
2017-10-26T18:31:53.702Z,24.02
2017-10-26T18:34:23.470Z,20.50
2017-10-26T18:36:53.221Z,21.42
2017-10-26T18:39:23.017Z,21.05
2017-10-26T18:41:52.873Z,23.73
2017-10-26T18:44:22.648Z,26.37
2017-10-26T18:46:52.443Z,24.63
2017-10-26T18:49:22.308Z,23.12
2017-10-26T18:51:52.085Z,24.35
2017-10-26T18:54:21.861Z,17.80
2017-10-26T18:56:51.626Z,23.73
2017-10-26T18:59:21.388Z,24.98
2017-10-26T19:01:51.156Z,26.02
2017-10-26T19:04:20.920Z,25.08
2017-10-26T19:06:50.688Z,32.03
2017-10-26T19:09:20.486Z,30.70
2017-10-26T19:11:50.267Z,22.00
2017-10-26T19:14:20.056Z,25.17
2017-10-26T19:16:49.804Z,29.25
2017-10-26T19:19:19.561Z,26.80
2017-10-26T19:21:49.337Z,25.08
2017-10-26T19:24:19.127Z,24.60
2017-10-26T19:26:48.877Z,24.52
2017-10-26T19:29:18.531Z,24.90
2017-10-26T19:31:48.269Z,28.12
2017-10-26T19:34:18.063Z,31.90
2017-10-26T19:36:47.853Z,28.33
2017-10-26T19:39:17.478Z,32.47
2017-10-26T19:41:54.774Z,30.85
2017-10-26T19:44:34.141Z,26.85
2017-10-26T19:47:04.590Z,27.52
2017-10-26T19:49:34.506Z,31.70
2017-10-26T19:52:04.472Z,33.33
2017-10-26T19:54:34.486Z,29.90
2017-10-26T19:57:04.430Z,34.20
2017-10-26T19:59:34.361Z,25.55
2017-10-26T20:02:04.357Z,32.75
2017-10-26T20:04:34.241Z,33.05
2017-10-26T20:07:04.203Z,34.40
2017-10-26T20:09:34.155Z,32.80
2017-10-26T20:12:04.038Z,37.15
2017-10-26T20:14:33.925Z,32.22
2017-10-26T20:17:03.941Z,46.55
2017-10-26T20:19:33.862Z,39.30
2017-10-26T20:22:03.674Z,43.15
2017-10-26T20:24:35.907Z,48.42
2017-10-26T20:27:06.050Z,49.03
2017-10-26T20:29:35.941Z,42.03
2017-10-26T20:32:05.843Z,38.92
2017-10-26T20:34:35.828Z,47.15
2017-10-26T20:37:05.769Z,47.80
2017-10-26T20:39:36.296Z,45.45
2017-10-26T20:42:06.253Z,55.20
2017-10-26T20:44:36.480Z,51.15
2017-10-26T20:47:06.410Z,44.08
2017-10-26T20:49:41.607Z,41.42
2017-10-26T20:52:17.025Z,35.97
2017-10-26T20:54:52.232Z,39.25
2017-10-26T20:57:27.523Z,53.72
2017-10-26T21:00:02.848Z,52.05
2017-10-26T21:02:37.815Z,60.55
2017-10-26T21:05:13.225Z,52.90
2017-10-26T21:07:48.237Z,43.53
2017-10-26T21:10:23.364Z,40.83
2017-10-26T21:12:58.549Z,48.55
2017-10-26T21:15:28.419Z,47.88
2017-10-26T21:17:58.307Z,53.70
2017-10-26T21:20:28.455Z,52.70
2017-10-26T21:22:58.314Z,38.80
2017-10-26T21:25:28.178Z,49.90
2017-10-26T21:27:58.006Z,61.90
2017-10-26T21:30:27.866Z,60.90
2017-10-26T21:32:57.693Z,49.97
2017-10-26T21:35:27.599Z,45.17
2017-10-26T21:37:57.443Z,52.60
2017-10-26T21:40:27.316Z,57.83
2017-10-26T21:42:57.135Z,69.07
2017-10-26T21:45:27.267Z,70.68
2017-10-26T21:47:57.091Z,65.32
2017-10-26T21:50:27.210Z,71.18
2017-10-26T21:52:57.038Z,65.62
2017-10-26T21:55:26.855Z,68.03
2017-10-26T21:57:56.662Z,54.00
2017-10-26T22:00:26.958Z,61.55
2017-10-26T22:02:56.874Z,56.75
2017-10-26T22:05:26.663Z,50.25
2017-10-26T22:07:56.518Z,54.95
2017-10-26T22:10:26.385Z,59.70
2017-10-26T22:12:56.188Z,55.60
2017-10-26T22:15:26.057Z,52.67
2017-10-26T22:17:55.915Z,49.35
2017-10-26T22:20:25.746Z,60.42
2017-10-26T22:22:55.546Z,58.17
2017-10-26T22:25:25.379Z,67.03
2017-10-26T22:27:55.375Z,59.00
2017-10-26T22:30:25.629Z,62.50
2017-10-26T22:32:55.513Z,73.20
2017-10-26T22:35:25.343Z,69.82
2017-10-26T22:37:55.301Z,68.47
2017-10-26T22:40:25.402Z,73.00
2017-10-26T22:42:55.263Z,94.53
2017-10-26T22:45:25.094Z,95.15
2017-10-26T22:47:55.016Z,82.82
2017-10-26T22:50:24.871Z,78.10
2017-10-26T22:52:54.743Z,89.45
2017-10-26T22:55:24.902Z,83.20
2017-10-26T22:57:54.774Z,90.22
2017-10-26T23:00:24.742Z,83.50
2017-10-26T23:02:55.199Z,106.85
2017-10-26T23:05:25.078Z,78.43
2017-10-26T23:07:54.980Z,75.57
2017-10-26T23:10:24.787Z,103.93
2017-10-26T23:12:54.591Z,97.12
2017-10-26T23:15:24.463Z,113.32
2017-10-26T23:17:54.292Z,89.85
2017-10-26T23:20:24.154Z,72.00
2017-10-26T23:22:53.973Z,56.53
2017-10-26T23:25:23.895Z,73.10
2017-10-26T23:27:53.986Z,59.88
2017-10-26T23:30:23.793Z,59.17
2017-10-26T23:32:53.722Z,65.15
2017-10-26T23:35:23.417Z,66.30
2017-10-26T23:37:53.291Z,63.08
2017-10-26T23:40:23.171Z,58.05
2017-10-26T23:42:53.240Z,55.55
2017-10-26T23:45:23.086Z,56.78
2017-10-26T23:47:52.926Z,71.40
2017-10-26T23:50:22.734Z,79.25
2017-10-26T23:52:52.623Z,86.32
2017-10-26T23:55:22.539Z,83.03
2017-10-26T23:57:52.395Z,78.07
